Time;durP1;ratioP1;P1;durP2;ratioP2;P2;SDS_P1;SDS_P2;PMS_P1;PMS_P2;Temp;Humidity;BMP_temperature;BMP_pressure;BME280_temperature;BME280_humidity;BME280_pressure;Samples;Min_cycle;Max_cycle;Signal;HPM_P1;HPM_P2
2021/07/25 00:01:57;;;;;;;19.48;12.80;;;19.50;99.90;;;;;;5089244;28;20744;-56
2021/07/25 00:04:23;;;;;;;22.27;12.32;;;19.50;99.90;;;;;;5088952;28;20830;-56
2021/07/25 00:06:48;;;;;;;19.20;12.60;;;19.40;99.90;;;;;;5089392;28;20389;-56
2021/07/25 00:09:14;;;;;;;23.77;13.17;;;19.30;99.90;;;;;;5088208;28;20382;-55
2021/07/25 00:11:40;;;;;;;20.30;13.20;;;19.30;99.90;;;;;;5090044;28;20382;-56
2021/07/25 00:14:05;;;;;;;22.67;13.00;;;19.30;99.90;;;;;;5088306;28;20422;-56
2021/07/25 00:16:32;;;;;;;27.80;13.40;;;19.50;99.90;;;;;;5089811;28;20386;-55
2021/07/25 00:18:58;;;;;;;21.42;12.60;;;19.50;99.90;;;;;;5089702;28;20393;-56
2021/07/25 00:21:24;;;;;;;23.98;12.93;;;19.50;99.90;;;;;;5088585;28;20386;-56
2021/07/25 00:23:51;;;;;;;21.40;11.80;;;19.50;99.90;;;;;;5089569;28;20456;-55
2021/07/25 00:26:24;;;;;;;22.50;12.07;;;19.50;99.90;;;;;;5088839;28;20894;-56
2021/07/25 00:28:50;;;;;;;20.88;11.48;;;19.50;99.90;;;;;;5089621;28;20378;-56
2021/07/25 00:31:16;;;;;;;26.85;10.63;;;19.60;99.90;;;;;;5088727;28;20373;-56
2021/07/25 00:33:43;;;;;;;25.38;10.90;;;19.60;99.90;;;;;;5089545;28;20466;-56
2021/07/25 00:36:09;;;;;;;26.10;12.63;;;19.70;99.90;;;;;;5089149;28;20400;-53
2021/07/25 00:38:35;;;;;;;21.10;10.83;;;19.80;99.90;;;;;;5089459;28;20416;-56
2021/07/25 00:41:21;;;;;;;26.17;11.55;;;19.90;99.90;;;;;;5089606;28;20409;-56
2021/07/25 00:43:48;;;;;;;22.90;11.40;;;20.00;99.90;;;;;;5089054;28;20455;-56
2021/07/25 00:46:15;;;;;;;24.63;10.83;;;20.10;99.90;;;;;;5088609;28;20386;-56
2021/07/25 00:48:41;;;;;;;21.17;10.70;;;20.10;99.90;;;;;;5089524;28;20390;-56
2021/07/25 00:51:08;;;;;;;20.50;11.57;;;20.10;99.90;;;;;;5089624;28;20538;-57
2021/07/25 00:53:37;;;;;;;21.75;12.40;;;20.00;99.90;;;;;;5088985;28;20378;-56
2021/07/25 00:56:08;;;;;;;18.20;10.80;;;19.90;99.90;;;;;;5089624;28;20949;-57
2021/07/25 00:58:39;;;;;;;21.67;11.20;;;19.90;99.90;;;;;;5089012;28;20461;-57
2021/07/25 01:01:07;;;;;;;18.15;11.40;;;19.80;99.90;;;;;;5089528;28;20374;-56
2021/07/25 01:03:44;;;;;;;24.48;11.45;;;19.90;99.90;;;;;;5088443;28;20445;-56
2021/07/25 01:06:10;;;;;;;23.00;11.20;;;19.80;99.90;;;;;;5088977;28;20394;-53
2021/07/25 01:08:53;;;;;;;20.80;11.40;;;19.90;99.90;;;;;;5088884;28;20739;-56
2021/07/25 01:11:19;;;;;;;19.17;11.20;;;19.90;99.90;;;;;;5088110;28;20725;-56
2021/07/25 01:13:50;;;;;;;19.77;10.97;;;19.80;99.90;;;;;;5089240;28;20372;-57
2021/07/25 01:16:15;;;;;;;21.65;11.40;;;19.90;99.90;;;;;;5088150;28;20482;-57
2021/07/25 01:18:49;;;;;;;21.23;12.30;;;19.80;99.90;;;;;;5089047;28;20454;-56
2021/07/25 01:21:15;;;;;;;21.63;12.60;;;19.90;99.90;;;;;;5089955;28;21024;-56
2021/07/25 01:23:42;;;;;;;21.15;11.40;;;19.80;99.90;;;;;;5091676;28;20402;-56
2021/07/25 01:26:10;;;;;;;21.70;12.57;;;19.80;99.90;;;;;;5092721;28;20444;-56
2021/07/25 01:28:40;;;;;;;17.80;11.60;;;19.70;99.90;;;;;;5092344;28;20386;-56
2021/07/25 01:31:14;;;;;;;20.15;12.18;;;19.60;99.90;;;;;;5092584;28;20374;-56
2021/07/25 01:33:42;;;;;;;25.52;13.10;;;19.60;99.90;;;;;;5092541;28;20431;-56
2021/07/25 01:36:10;;;;;;;24.33;14.02;;;19.50;99.90;;;;;;5092562;28;20382;-56
2021/07/25 01:38:35;;;;;;;26.93;14.23;;;19.50;99.90;;;;;;5092652;28;20424;-56
2021/07/25 01:41:03;;;;;;;26.58;14.15;;;19.60;99.90;;;;;;5092589;28;20406;-55
2021/07/25 01:43:32;;;;;;;27.33;14.32;;;19.60;99.90;;;;;;5091729;28;20428;-56
2021/07/25 01:45:57;;;;;;;26.30;14.13;;;19.70;99.90;;;;;;5092740;28;20378;-55
2021/07/25 01:48:23;;;;;;;27.27;15.05;;;19.80;99.90;;;;;;5091700;28;20457;-55
2021/07/25 01:50:49;;;;;;;20.73;13.65;;;19.80;99.90;;;;;;5092483;28;20970;-55
2021/07/25 01:53:15;;;;;;;25.50;14.40;;;19.80;99.90;;;;;;5091578;28;20390;-55
2021/07/25 01:55:42;;;;;;;27.00;14.80;;;19.80;99.90;;;;;;5092343;28;20927;-55
2021/07/25 01:58:07;;;;;;;25.42;14.40;;;19.70;99.90;;;;;;5092308;28;20862;-56
2021/07/25 02:00:33;;;;;;;30.33;15.85;;;19.70;99.90;;;;;;5092005;28;20386;-56
2021/07/25 02:02:59;;;;;;;26.10;14.45;;;19.70;99.90;;;;;;5092265;28;20548;-56
2021/07/25 02:05:25;;;;;;;26.23;14.73;;;19.80;99.90;;;;;;5091582;28;20397;-57
2021/07/25 02:07:51;;;;;;;29.10;15.18;;;19.90;99.90;;;;;;5092490;28;20378;-56
2021/07/25 02:10:16;;;;;;;26.38;14.25;;;19.90;99.90;;;;;;5091404;28;20456;-56
2021/07/25 02:12:42;;;;;;;32.00;15.90;;;19.90;99.90;;;;;;5124541;27;20428;-56
2021/07/25 02:15:08;;;;;;;29.17;15.90;;;19.80;99.90;;;;;;5092180;28;20417;-56
2021/07/25 02:17:34;;;;;;;26.45;15.50;;;19.60;99.90;;;;;;5084618;28;20498;-56
2021/07/25 02:19:59;;;;;;;31.93;16.80;;;19.50;99.90;;;;;;5091713;28;20822;-56
2021/07/25 02:22:25;;;;;;;26.88;16.02;;;19.40;99.90;;;;;;5091025;28;20774;-56
2021/07/25 02:24:50;;;;;;;28.38;14.70;;;19.30;99.90;;;;;;5091259;28;20402;-56
2021/07/25 02:27:16;;;;;;;29.70;15.73;;;19.40;99.90;;;;;;5090990;28;20450;-57
2021/07/25 02:29:42;;;;;;;26.30;15.23;;;19.40;99.90;;;;;;5091528;28;20586;-56
2021/07/25 02:32:07;;;;;;;32.13;15.80;;;19.50;99.90;;;;;;5089839;28;20436;-58
2021/07/25 02:34:33;;;;;;;26.00;15.30;;;19.50;99.90;;;;;;5090792;28;20757;-57
2021/07/25 02:36:59;;;;;;;28.67;14.02;;;19.60;99.90;;;;;;5091182;28;20382;-56
2021/07/25 02:39:26;;;;;;;22.25;14.45;;;19.60;99.90;;;;;;5090630;28;20386;-56
2021/07/25 02:41:52;;;;;;;25.05;14.23;;;19.60;99.90;;;;;;5091435;28;20459;-56
2021/07/25 02:44:17;;;;;;;25.58;13.95;;;19.60;99.90;;;;;;5090141;28;20961;-56
2021/07/25 02:46:43;;;;;;;26.38;13.55;;;19.70;99.90;;;;;;5091120;28;20457;-56
2021/07/25 02:49:09;;;;;;;20.17;13.68;;;19.90;99.90;;;;;;5091205;28;20406;-57
2021/07/25 02:51:34;;;;;;;24.73;13.95;;;20.00;99.90;;;;;;5090805;28;20434;-57
2021/07/25 02:54:00;;;;;;;21.80;12.90;;;20.00;99.90;;;;;;5090897;28;20856;-56
2021/07/25 02:56:26;;;;;;;21.02;13.10;;;19.80;99.90;;;;;;5090778;28;20447;-60
2021/07/25 02:58:51;;;;;;;25.52;12.80;;;19.70;99.90;;;;;;5090946;28;20382;-57
2021/07/25 03:01:18;;;;;;;22.33;13.00;;;19.60;99.90;;;;;;5090352;28;20461;-56
2021/07/25 03:03:43;;;;;;;19.90;13.35;;;19.60;99.90;;;;;;5089569;28;20394;-58
2021/07/25 03:06:09;;;;;;;22.97;12.63;;;19.60;99.90;;;;;;5091079;28;20390;-56
2021/07/25 03:08:35;;;;;;;19.48;12.23;;;19.60;99.90;;;;;;5090505;28;20473;-56
2021/07/25 03:11:05;;;;;;;25.70;13.73;;;19.60;99.90;;;;;;5091230;28;20406;-56
2021/07/25 03:13:30;;;;;;;31.97;13.60;;;19.60;99.90;;;;;;5089952;28;20446;-57
2021/07/25 03:16:01;;;;;;;23.00;13.32;;;19.70;99.90;;;;;;5090554;28;20882;-57
2021/07/25 03:18:27;;;;;;;21.88;13.82;;;19.80;99.90;;;;;;5089726;28;20702;-57
2021/07/25 03:20:52;;;;;;;26.67;13.60;;;19.80;99.90;;;;;;5090440;28;20392;-56
2021/07/25 03:23:18;;;;;;;22.57;14.00;;;19.80;99.90;;;;;;5089458;28;20406;-57
2021/07/25 03:25:43;;;;;;;25.03;14.30;;;19.80;99.90;;;;;;5090390;28;20505;-57
2021/07/25 03:28:09;;;;;;;23.65;13.80;;;19.90;99.90;;;;;;5090695;28;20374;-57
2021/07/25 03:30:35;;;;;;;29.70;13.32;;;20.00;99.90;;;;;;5088564;28;20451;-56
2021/07/25 03:33:00;;;;;;;23.60;13.60;;;20.00;99.90;;;;;;5089363;28;20378;-57
2021/07/25 03:35:26;;;;;;;23.47;14.30;;;19.90;99.90;;;;;;5089928;28;20390;-56
2021/07/25 03:37:52;;;;;;;24.77;14.10;;;19.90;99.90;;;;;;5090350;28;20394;-57
2021/07/25 03:40:18;;;;;;;24.23;13.45;;;19.80;99.90;;;;;;5089594;28;20377;-57
2021/07/25 03:42:44;;;;;;;24.27;13.67;;;19.80;99.90;;;;;;5089871;28;20371;-57
2021/07/25 03:45:09;;;;;;;24.05;14.57;;;19.60;99.90;;;;;;5089740;28;20406;-57
2021/07/25 03:47:38;;;;;;;26.10;14.30;;;19.60;99.90;;;;;;5089376;28;20740;-57
2021/07/25 03:50:04;;;;;;;26.27;15.05;;;19.50;99.90;;;;;;5089931;28;20940;-57
2021/07/25 03:52:30;;;;;;;27.05;15.52;;;19.50;99.90;;;;;;5089303;28;20383;-57
2021/07/25 03:54:55;;;;;;;23.10;14.50;;;19.30;99.90;;;;;;5090153;28;20438;-57
2021/07/25 03:57:21;;;;;;;23.83;15.30;;;19.30;99.90;;;;;;5088603;28;20399;-57
2021/07/25 03:59:47;;;;;;;25.00;15.23;;;19.30;99.90;;;;;;5089925;28;20381;-57
2021/07/25 04:02:12;;;;;;;30.00;14.97;;;19.20;99.90;;;;;;5089889;28;20366;-56
2021/07/25 04:04:38;;;;;;;31.27;15.13;;;19.20;99.90;;;;;;5090130;28;20401;-56
2021/07/25 04:07:03;;;;;;;29.63;14.52;;;19.00;99.90;;;;;;5089512;28;20393;-56
2021/07/25 04:09:29;;;;;;;27.15;14.95;;;18.90;99.90;;;;;;5088989;28;20427;-56
2021/07/25 04:11:55;;;;;;;30.17;14.97;;;18.90;99.90;;;;;;5090198;28;20728;-56
2021/07/25 04:14:22;;;;;;;27.90;15.18;;;18.90;99.90;;;;;;5088924;28;20927;-56
2021/07/25 04:16:49;;;;;;;25.83;13.40;;;18.90;99.90;;;;;;5090020;28;20897;-56
2021/07/25 04:19:16;;;;;;;25.63;14.30;;;18.90;99.90;;;;;;5089148;28;20374;-53
2021/07/25 04:21:42;;;;;;;24.42;14.30;;;18.90;99.90;;;;;;5089880;28;20936;-58
2021/07/25 04:24:07;;;;;;;31.83;14.63;;;19.00;99.90;;;;;;5089694;28;20405;-56
2021/07/25 04:26:33;;;;;;;32.20;13.67;;;19.10;99.90;;;;;;5087550;28;20566;-56
2021/07/25 04:28:59;;;;;;;25.60;13.90;;;19.10;99.90;;;;;;5089500;28;20386;-56
2021/07/25 04:31:25;;;;;;;22.77;13.60;;;19.10;99.90;;;;;;5088659;28;20392;-56
2021/07/25 04:33:53;;;;;;;27.75;12.85;;;19.30;99.90;;;;;;5089475;28;20396;-56
2021/07/25 04:36:26;;;;;;;29.70;12.88;;;19.40;99.90;;;;;;5088861;28;20443;-56
2021/07/25 04:38:53;;;;;;;21.52;12.43;;;19.40;99.90;;;;;;5089767;28;20385;-56
2021/07/25 04:41:24;;;;;;;26.23;13.88;;;19.40;99.90;;;;;;5088875;28;20370;-56
2021/07/25 04:43:58;;;;;;;26.75;14.85;;;19.40;99.90;;;;;;5089593;28;20421;-56
2021/07/25 04:46:30;;;;;;;28.15;13.23;;;19.50;99.90;;;;;;5088935;28;20860;-56
2021/07/25 04:49:13;;;;;;;24.97;12.60;;;19.60;99.90;;;;;;5089630;28;20375;-56
2021/07/25 04:51:41;;;;;;;22.52;14.23;;;19.70;99.90;;;;;;5089047;28;20912;-57
2021/07/25 04:54:09;;;;;;;19.45;12.52;;;20.00;99.90;;;;;;5089499;28;20871;-56
2021/07/25 04:56:59;;;;;;;31.15;13.15;;;20.00;99.90;;;;;;5092565;28;20382;-57
2021/07/25 04:59:44;;;;;;;25.47;13.50;;;19.90;99.90;;;;;;5091418;28;21102;-56
2021/07/25 05:02:11;;;;;;;27.00;12.90;;;19.80;99.90;;;;;;5093427;28;20413;-56
2021/07/25 05:04:37;;;;;;;29.35;14.40;;;19.90;99.90;;;;;;5092390;28;20784;-56
2021/07/25 05:07:03;;;;;;;29.48;13.10;;;20.00;99.90;;;;;;5092954;28;20405;-57
2021/07/25 05:09:29;;;;;;;30.63;13.43;;;20.00;99.90;;;;;;5092221;28;20402;-57
2021/07/25 05:12:04;;;;;;;24.73;13.38;;;20.00;99.90;;;;;;5093330;28;20371;-57
2021/07/25 05:14:35;;;;;;;23.50;12.85;;;20.10;99.90;;;;;;5092911;28;20382;-57
2021/07/25 05:17:08;;;;;;;22.30;12.10;;;20.20;99.90;;;;;;5093082;28;20377;-57
2021/07/25 05:19:41;;;;;;;19.97;11.33;;;20.30;99.90;;;;;;5092222;28;20374;-57
2021/07/25 05:22:27;;;;;;;30.63;12.10;;;20.30;99.90;;;;;;5093122;28;20839;-57
2021/07/25 05:24:54;;;;;;;21.00;11.50;;;20.50;99.90;;;;;;5080511;28;20418;-57
2021/07/25 05:27:22;;;;;;;18.60;11.25;;;20.70;99.90;;;;;;5092411;28;20381;-56
2021/07/25 05:29:49;;;;;;;29.35;11.93;;;20.70;99.90;;;;;;5093034;28;20394;-57
2021/07/25 05:32:16;;;;;;;22.17;11.25;;;20.80;99.90;;;;;;5090985;28;20386;-54
2021/07/25 05:34:42;;;;;;;22.02;11.38;;;20.90;99.90;;;;;;5092944;28;20461;-57
2021/07/25 05:37:07;;;;;;;19.10;10.70;;;20.90;99.90;;;;;;5092908;28;20808;-57
2021/07/25 05:39:33;;;;;;;21.88;11.10;;;21.00;99.90;;;;;;5092006;28;20382;-57
2021/07/25 05:41:58;;;;;;;23.92;11.25;;;21.00;99.90;;;;;;5092769;28;20417;-57
2021/07/25 05:44:24;;;;;;;21.80;11.25;;;21.10;99.90;;;;;;5091814;28;20472;-57
2021/07/25 05:46:50;;;;;;;16.67;9.50;;;21.10;99.90;;;;;;5092533;28;20385;-58
2021/07/25 05:49:15;;;;;;;15.10;10.10;;;21.20;99.90;;;;;;5090204;28;20851;-54
2021/07/25 05:51:41;;;;;;;20.97;10.20;;;21.20;99.90;;;;;;5084054;28;20402;-57
2021/07/25 05:54:07;;;;;;;14.23;9.70;;;21.20;99.90;;;;;;5091959;28;20759;-57
2021/07/25 05:56:33;;;;;;;16.00;10.10;;;21.20;99.90;;;;;;5091087;28;20392;-57
2021/07/25 05:58:58;;;;;;;16.03;9.80;;;21.20;99.90;;;;;;5090538;28;20469;-59
2021/07/25 06:01:24;;;;;;;14.23;9.30;;;21.30;99.90;;;;;;5090506;28;20442;-58
2021/07/25 06:03:49;;;;;;;16.00;9.88;;;21.30;99.90;;;;;;5090301;28;20955;-58
2021/07/25 06:06:15;;;;;;;14.38;9.65;;;21.40;99.90;;;;;;5090368;28;20390;-55
2021/07/25 06:08:42;;;;;;;17.37;10.03;;;21.30;99.90;;;;;;5090465;28;20382;-58
2021/07/25 06:11:08;;;;;;;14.20;9.55;;;21.30;99.90;;;;;;5091480;28;20398;-57
2021/07/25 06:13:34;;;;;;;15.40;9.30;;;21.40;99.90;;;;;;5091044;28;20859;-57
2021/07/25 06:16:01;;;;;;;15.80;8.80;;;21.50;99.90;;;;;;5091795;28;20374;-58
2021/07/25 06:18:27;;;;;;;14.77;9.27;;;21.60;99.90;;;;;;5090978;28;20412;-58
2021/07/25 06:20:53;;;;;;;14.63;8.57;;;21.60;99.90;;;;;;5090863;28;20437;-58
2021/07/25 06:23:18;;;;;;;15.52;9.32;;;21.50;99.90;;;;;;5090608;28;20371;-58
2021/07/25 06:25:44;;;;;;;15.47;10.17;;;21.40;99.90;;;;;;5091470;28;20383;-58
2021/07/25 06:28:10;;;;;;;16.80;9.83;;;21.40;99.90;;;;;;5091361;28;20379;-58
2021/07/25 06:30:35;;;;;;;13.23;9.60;;;21.50;99.90;;;;;;5090697;28;20366;-58
2021/07/25 06:33:05;;;;;;;20.05;8.57;;;21.50;99.90;;;;;;5090950;28;20491;-58
2021/07/25 06:35:36;;;;;;;14.30;8.60;;;21.60;99.90;;;;;;5090439;28;20435;-58
2021/07/25 06:38:13;;;;;;;12.65;9.25;;;21.70;99.90;;;;;;5090805;28;20447;-58
2021/07/25 06:40:43;;;;;;;13.10;8.68;;;21.90;99.90;;;;;;5089940;28;20871;-58
2021/07/25 06:43:09;;;;;;;14.75;9.07;;;22.20;99.90;;;;;;5091173;28;20926;-59
2021/07/25 06:45:35;;;;;;;12.93;8.30;;;22.60;99.90;;;;;;5090475;28;20576;-59
2021/07/25 06:48:00;;;;;;;12.88;8.50;;;22.90;99.90;;;;;;5091137;28;20397;-57
2021/07/25 06:50:29;;;;;;;13.17;8.10;;;23.40;99.90;;;;;;5089980;28;20439;-57
2021/07/25 06:52:56;;;;;;;12.50;7.97;;;23.90;99.90;;;;;;5090397;28;20459;-56
2021/07/25 06:55:25;;;;;;;10.57;7.03;;;24.30;99.90;;;;;;5090476;28;20382;-57
2021/07/25 06:57:51;;;;;;;13.07;7.60;;;24.50;99.90;;;;;;5090586;28;20389;-57
2021/07/25 07:00:17;;;;;;;13.40;8.00;;;24.50;99.90;;;;;;5088605;28;20760;-54
2021/07/25 07:02:50;;;;;;;11.85;8.27;;;24.50;99.90;;;;;;5090363;28;20385;-57
2021/07/25 07:05:17;;;;;;;15.15;8.57;;;24.60;99.90;;;;;;5088378;28;20420;-56
2021/07/25 07:07:45;;;;;;;15.27;8.70;;;24.50;99.90;;;;;;5090337;28;20438;-57
2021/07/25 07:10:11;;;;;;;12.40;7.97;;;24.60;99.90;;;;;;5089694;28;20410;-57
2021/07/25 07:12:37;;;;;;;12.95;7.55;;;24.90;99.90;;;;;;5089628;28;20369;-57
2021/07/25 07:15:06;;;;;;;12.90;8.00;;;25.90;99.90;;;;;;5089124;28;20898;-58
2021/07/25 07:17:31;;;;;;;13.25;7.55;;;27.60;99.90;;;;;;5089758;28;20851;-58
2021/07/25 07:19:57;;;;;;;15.75;8.18;;;28.80;99.90;;;;;;5090224;28;20374;-61
2021/07/25 07:22:27;;;;;;;11.87;8.17;;;28.60;99.90;;;;;;5089528;28;20362;-58
2021/07/25 07:24:54;;;;;;;16.35;8.10;;;28.00;99.90;;;;;;5090706;28;20394;-58
2021/07/25 07:27:20;;;;;;;11.57;7.50;;;27.80;99.90;;;;;;5088199;28;20744;-58
2021/07/25 07:29:46;;;;;;;13.43;7.68;;;27.40;99.90;;;;;;5090160;28;20519;-58
2021/07/25 07:32:11;;;;;;;14.10;7.67;;;27.40;99.90;;;;;;5090240;28;20465;-58
2021/07/25 07:34:37;;;;;;;15.80;7.37;;;27.50;99.90;;;;;;5089063;28;20370;-58
2021/07/25 07:37:04;;;;;;;11.57;8.03;;;27.60;99.90;;;;;;5089886;28;20763;-59
2021/07/25 07:39:30;;;;;;;14.25;7.75;;;27.80;99.90;;;;;;5089587;28;20509;-59
2021/07/25 07:41:56;;;;;;;12.10;7.35;;;27.90;99.90;;;;;;5088991;28;20887;-59
2021/07/25 07:44:22;;;;;;;12.05;7.60;;;27.60;99.90;;;;;;5088887;28;20463;-59
2021/07/25 07:46:47;;;;;;;10.32;7.65;;;27.60;99.90;;;;;;5089396;28;20932;-60
2021/07/25 07:49:13;;;;;;;11.13;7.63;;;27.40;99.90;;;;;;5089734;28;20391;-58
2021/07/25 07:51:38;;;;;;;13.43;7.80;;;27.50;99.90;;;;;;5088646;28;20375;-57
2021/07/25 07:54:04;;;;;;;11.47;7.17;;;27.40;99.90;;;;;;5089500;28;20876;-58
2021/07/25 07:56:31;;;;;;;11.80;7.40;;;26.80;99.90;;;;;;5088778;28;20427;-58
2021/07/25 07:58:57;;;;;;;12.60;8.10;;;26.20;99.90;;;;;;5089608;28;20460;-59
2021/07/25 08:01:23;;;;;;;11.77;7.32;;;26.10;99.90;;;;;;5088384;28;20435;-58
2021/07/25 08:03:48;;;;;;;11.93;7.70;;;26.10;99.90;;;;;;5089204;28;20795;-58
2021/07/25 08:06:14;;;;;;;12.63;7.72;;;25.90;99.90;;;;;;5089681;28;20405;-58
2021/07/25 08:08:40;;;;;;;14.57;8.32;;;25.80;99.90;;;;;;5088406;28;20443;-59
2021/07/25 08:11:05;;;;;;;12.50;7.13;;;25.80;99.90;;;;;;5089739;28;20797;-58
2021/07/25 08:13:31;;;;;;;12.07;7.30;;;26.20;99.90;;;;;;5089089;28;20812;-58
2021/07/25 08:15:56;;;;;;;11.50;7.10;;;27.80;99.90;;;;;;5088825;28;20781;-57
2021/07/25 08:18:22;;;;;;;12.25;8.90;;;29.40;99.90;;;;;;5088426;28;20879;-56
2021/07/25 08:20:48;;;;;;;15.77;9.80;;;30.60;99.90;;;;;;5089190;28;20863;-57
2021/07/25 08:23:13;;;;;;;12.73;8.00;;;31.20;99.90;;;;;;5088539;28;20484;-57
2021/07/25 08:25:39;;;;;;;13.60;10.50;;;30.30;99.90;;;;;;5088271;28;20412;-57
2021/07/25 08:28:05;;;;;;;12.80;10.30;;;29.30;99.90;;;;;;5087983;28;20894;-60
2021/07/25 08:30:32;;;;;;;13.80;8.03;;;28.60;99.90;;;;;;5092907;28;20396;-58
2021/07/25 08:32:58;;;;;;;12.60;7.32;;;27.70;99.90;;;;;;5094823;28;20800;-57
2021/07/25 08:35:23;;;;;;;13.70;7.67;;;27.10;99.90;;;;;;5094983;28;20388;-57
2021/07/25 08:37:49;;;;;;;13.57;7.43;;;26.20;99.90;;;;;;5095772;28;20378;-58
2021/07/25 08:40:15;;;;;;;11.20;7.55;;;25.80;99.90;;;;;;5095345;28;20382;-58
2021/07/25 08:43:16;;;;;;;12.82;8.20;;;25.80;99.90;;;;;;5094959;28;20405;-58
2021/07/25 08:45:44;;;;;;;14.55;7.53;;;25.70;99.90;;;;;;5094532;28;20398;-57
2021/07/25 08:48:11;;;;;;;11.35;7.45;;;25.40;99.90;;;;;;5095452;28;20370;-57
2021/07/25 08:50:49;;;;;;;13.75;7.70;;;25.10;99.90;;;;;;5093226;28;20617;-57
2021/07/25 08:53:18;;;;;;;10.10;6.80;;;24.90;99.90;;;;;;5095854;28;20453;-57
2021/07/25 08:55:45;;;;;;;11.70;7.38;;;25.70;99.90;;;;;;5095305;28;20386;-57
2021/07/25 08:58:12;;;;;;;11.73;7.32;;;24.60;99.90;;;;;;5095335;28;20378;-57
2021/07/25 09:00:38;;;;;;;11.88;7.40;;;24.30;99.90;;;;;;5095038;28;20388;-57
2021/07/25 09:03:07;;;;;;;11.23;7.20;;;24.20;99.90;;;;;;5095503;28;20366;-57
2021/07/25 09:05:34;;;;;;;13.45;7.07;;;23.90;99.90;;;;;;5094970;28;20389;-58
2021/07/25 09:08:02;;;;;;;13.15;7.38;;;23.90;99.90;;;;;;5092984;28;20402;-58
2021/07/25 09:10:28;;;;;;;13.90;6.87;;;23.90;99.90;;;;;;5076199;28;20417;-57
2021/07/25 09:12:55;;;;;;;11.88;6.72;;;23.90;99.90;;;;;;5075506;28;20458;-58
2021/07/25 09:15:28;;;;;;;12.50;7.00;;;23.90;99.90;;;;;;5074336;28;20762;-54
2021/07/25 09:17:56;;;;;;;9.60;5.93;;;24.00;99.90;;;;;;5091169;28;20752;-57
2021/07/25 09:20:28;;;;;;;10.55;6.28;;;24.20;99.90;;;;;;5080895;28;20446;-57
2021/07/25 09:23:03;;;;;;;11.57;6.80;;;24.50;99.90;;;;;;5074217;28;21276;-58
2021/07/25 09:25:32;;;;;;;11.35;6.60;;;24.50;99.90;;;;;;5074885;28;20411;-59
2021/07/25 09:27:57;;;;;;;11.60;7.10;;;24.30;99.90;;;;;;5094532;28;20685;-57
2021/07/25 09:30:29;;;;;;;10.30;6.70;;;24.20;99.90;;;;;;5093961;28;20374;-58
2021/07/25 09:32:56;;;;;;;11.30;6.80;;;24.10;99.90;;;;;;5094692;28;20374;-58
2021/07/25 09:35:33;;;;;;;12.63;6.70;;;24.10;99.90;;;;;;5093782;28;20389;-57
2021/07/25 09:38:04;;;;;;;10.80;6.97;;;24.10;99.90;;;;;;5093109;28;20388;-58
2021/07/25 09:40:33;;;;;;;12.07;6.65;;;24.30;99.90;;;;;;5091632;28;20451;-58
2021/07/25 09:43:20;;;;;;;10.87;7.27;;;24.70;99.90;;;;;;5085573;28;20770;-57
2021/07/25 09:45:55;;;;;;;14.10;7.38;;;25.00;99.90;;;;;;5087063;28;20867;-58
2021/07/25 09:48:24;;;;;;;11.13;7.03;;;25.20;99.90;;;;;;5077986;28;20392;-56
2021/07/25 09:50:51;;;;;;;10.95;7.15;;;25.20;99.90;;;;;;5084986;28;20390;-59
2021/07/25 09:53:17;;;;;;;13.43;7.70;;;25.00;99.90;;;;;;5089265;28;20370;-58
2021/07/25 09:55:43;;;;;;;12.45;7.38;;;25.00;99.90;;;;;;5082866;28;20462;-58
2021/07/25 09:58:09;;;;;;;11.35;7.47;;;25.20;99.90;;;;;;5072362;28;20384;-59
2021/07/25 10:00:43;;;;;;;10.63;7.20;;;25.10;99.90;;;;;;5081346;28;20387;-58
2021/07/25 10:03:18;;;;;;;13.27;7.70;;;25.00;99.90;;;;;;5084607;28;20955;-58
2021/07/25 10:05:47;;;;;;;15.07;7.80;;;24.80;99.90;;;;;;5090733;28;20446;-58
2021/07/25 10:08:23;;;;;;;13.17;7.30;;;24.80;99.90;;;;;;5090931;28;20688;-58
2021/07/25 10:10:53;;;;;;;11.60;6.85;;;24.80;99.90;;;;;;5089533;28;20735;-58
2021/07/25 10:13:23;;;;;;;10.82;7.35;;;24.80;99.90;;;;;;5087666;28;20382;-55
2021/07/25 10:15:59;;;;;;;10.68;7.00;;;24.80;99.90;;;;;;5071279;28;20386;-58
2021/07/25 10:18:27;;;;;;;11.83;7.23;;;25.00;99.90;;;;;;5070527;28;20414;-57
2021/07/25 10:21:00;;;;;;;11.32;7.55;;;25.00;99.90;;;;;;5071281;28;20383;-58
2021/07/25 10:23:33;;;;;;;10.82;7.30;;;25.30;99.90;;;;;;5069281;28;20753;-59
2021/07/25 10:26:01;;;;;;;11.60;7.43;;;25.40;99.90;;;;;;5070973;28;20372;-59
2021/07/25 10:28:30;;;;;;;11.85;7.00;;;25.40;99.90;;;;;;5070386;28;20376;-58
2021/07/25 10:30:58;;;;;;;11.35;7.40;;;25.20;99.90;;;;;;5070851;28;20390;-57
2021/07/25 10:33:24;;;;;;;11.80;7.03;;;25.00;99.90;;;;;;5070246;28;20384;-58
2021/07/25 10:35:52;;;;;;;10.63;7.88;;;24.80;99.90;;;;;;5070950;28;20391;-58
2021/07/25 10:38:18;;;;;;;11.07;7.57;;;24.30;99.90;;;;;;5082125;28;20447;-58
2021/07/25 10:40:45;;;;;;;12.35;7.70;;;24.40;99.90;;;;;;5089133;28;20374;-58
2021/07/25 10:43:13;;;;;;;11.25;7.50;;;24.30;99.90;;;;;;5086625;28;20386;-59
2021/07/25 10:45:39;;;;;;;12.80;7.50;;;24.20;99.90;;;;;;5083112;28;20384;-58
2021/07/25 10:48:15;;;;;;;11.87;8.53;;;24.20;99.90;;;;;;5087213;28;20497;-59
2021/07/25 10:50:41;;;;;;;12.17;7.40;;;24.40;99.90;;;;;;5083978;28;20522;-58
2021/07/25 10:53:19;;;;;;;13.23;8.60;;;24.30;99.90;;;;;;5083788;28;20432;-58
2021/07/25 10:55:46;;;;;;;12.43;8.35;;;24.00;99.90;;;;;;5084914;28;20461;-58
2021/07/25 10:58:14;;;;;;;15.40;9.25;;;23.80;99.90;;;;;;5084702;28;20382;-58
2021/07/25 11:00:47;;;;;;;13.20;8.65;;;23.70;99.90;;;;;;5085850;28;20637;-58
2021/07/25 11:03:39;;;;;;;16.08;9.60;;;23.60;99.90;;;;;;5084318;28;20382;-59
2021/07/25 11:06:05;;;;;;;16.45;9.70;;;23.50;99.90;;;;;;5077494;28;20942;-59
2021/07/25 11:08:43;;;;;;;13.38;8.90;;;23.30;99.90;;;;;;5082442;28;20933;-58
2021/07/25 11:11:47;;;;;;;12.65;8.50;;;23.10;99.90;;;;;;5080798;28;20451;-59
2021/07/25 11:14:51;;;;;;;13.20;8.77;;;23.00;99.90;;;;;;5084389;28;20857;-59
2021/07/25 11:17:45;;;;;;;13.68;9.27;;;22.80;99.90;;;;;;5084395;28;20448;-59
2021/07/25 11:20:40;;;;;;;12.93;8.63;;;22.70;99.90;;;;;;5086831;28;20473;-58
2021/07/25 11:23:10;;;;;;;12.52;8.32;;;22.80;99.90;;;;;;5084484;28;20382;-58
2021/07/25 11:25:37;;;;;;;12.80;8.77;;;22.80;99.90;;;;;;5083044;28;20450;-59
2021/07/25 11:28:04;;;;;;;16.00;9.88;;;22.80;99.90;;;;;;5083690;28;20375;-60
2021/07/25 11:30:48;;;;;;;12.25;8.50;;;22.80;99.90;;;;;;5084337;28;20482;-58
2021/07/25 11:33:45;;;;;;;15.10;8.35;;;22.30;99.90;;;;;;5084855;28;20386;-60
2021/07/25 11:36:19;;;;;;;12.02;7.72;;;22.10;99.90;;;;;;5081397;28;20433;-59
2021/07/25 11:39:01;;;;;;;10.38;6.30;;;22.10;99.90;;;;;;5084389;28;20398;-58
2021/07/25 11:41:32;;;;;;;11.50;5.93;;;22.10;99.90;;;;;;5084063;28;20896;-59
2021/07/25 11:44:02;;;;;;;11.02;6.15;;;22.20;99.90;;;;;;5082797;28;20415;-58
2021/07/25 11:46:40;;;;;;;11.95;6.47;;;22.20;99.90;;;;;;5082431;28;20382;-60
2021/07/25 11:49:22;;;;;;;10.52;6.60;;;22.40;99.90;;;;;;5084611;28;20382;-58
2021/07/25 11:51:49;;;;;;;12.30;7.10;;;22.50;99.90;;;;;;5086335;28;20447;-58
2021/07/25 11:54:20;;;;;;;12.10;6.70;;;22.70;99.90;;;;;;5089290;28;20655;-59
2021/07/25 11:57:03;;;;;;;12.07;7.35;;;22.80;99.90;;;;;;5089105;28;20386;-60
2021/07/25 11:59:46;;;;;;;11.65;7.03;;;23.10;99.90;;;;;;5088611;28;20386;-60
2021/07/25 12:02:12;;;;;;;11.82;6.97;;;23.10;99.90;;;;;;5090057;28;20378;-59
2021/07/25 12:04:43;;;;;;;11.10;6.80;;;23.10;99.90;;;;;;5088368;28;20468;-60
2021/07/25 12:07:15;;;;;;;11.98;6.32;;;23.00;99.90;;;;;;5089686;28;20839;-59
2021/07/25 12:09:48;;;;;;;10.43;6.90;;;23.10;99.90;;;;;;5088810;28;20453;-59
2021/07/25 12:12:16;;;;;;;11.68;6.85;;;23.00;99.90;;;;;;5089269;28;20429;-59
2021/07/25 12:14:48;;;;;;;10.63;6.40;;;22.90;99.90;;;;;;5088842;28;20443;-58
2021/07/25 12:17:44;;;;;;;11.98;6.60;;;22.80;99.90;;;;;;5089347;28;20389;-58
2021/07/25 12:20:11;;;;;;;11.50;6.73;;;22.90;99.90;;;;;;5089329;28;20386;-59
2021/07/25 12:23:08;;;;;;;11.32;5.70;;;23.00;99.90;;;;;;5087535;28;20718;-58
2021/07/25 12:25:47;;;;;;;11.38;5.90;;;22.60;99.90;;;;;;5071776;28;20772;-60
2021/07/25 12:28:14;;;;;;;9.70;5.60;;;22.50;99.90;;;;;;5088754;28;20374;-58
2021/07/25 12:30:45;;;;;;;9.57;5.40;;;22.40;99.90;;;;;;5088859;28;20367;-58
2021/07/25 12:33:16;;;;;;;9.50;5.00;;;22.40;99.90;;;;;;5089872;28;20378;-60
2021/07/25 12:35:42;;;;;;;10.25;5.20;;;22.40;99.90;;;;;;5088365;28;21042;-59
2021/07/25 12:38:12;;;;;;;7.68;4.97;;;22.50;99.90;;;;;;5090003;28;20465;-59
2021/07/25 12:40:52;;;;;;;10.52;5.80;;;22.40;99.90;;;;;;5089462;28;20374;-59
2021/07/25 12:43:19;;;;;;;7.90;5.10;;;22.50;99.90;;;;;;5089606;28;20453;-58